createdAt,value
2022-09-12T00:04:06.125Z,11.43
2022-09-12T00:09:13.808Z,11.40
2022-09-12T00:14:20.829Z,11.42
2022-09-12T00:19:27.413Z,11.43
2022-09-12T00:24:34.234Z,11.41
2022-09-12T00:29:41.065Z,11.39
2022-09-12T00:34:48.161Z,11.37
2022-09-12T00:39:54.792Z,11.30
2022-09-12T00:45:00.850Z,11.29
2022-09-12T00:50:11.330Z,11.31
2022-09-12T00:55:19.594Z,11.31
2022-09-12T01:00:27.542Z,11.25
2022-09-12T01:05:36.986Z,11.25
2022-09-12T01:10:44.691Z,11.23
2022-09-12T01:15:50.810Z,11.20
2022-09-12T01:21:09.147Z,11.22
2022-09-12T01:26:38.672Z,11.23
2022-09-12T01:31:53.018Z,11.19
2022-09-12T01:37:10.848Z,11.14
2022-09-12T01:42:22.457Z,11.13
2022-09-12T01:47:39.661Z,11.16
2022-09-12T01:52:49.467Z,11.15
2022-09-12T01:57:59.721Z,11.16
2022-09-12T02:03:12.503Z,11.18
2022-09-12T02:08:22.369Z,11.16
2022-09-12T02:13:34.713Z,11.08
2022-09-12T02:18:44.836Z,11.05
2022-09-12T02:23:55.630Z,11.01
2022-09-12T02:29:03.890Z,10.95
2022-09-12T02:34:22.358Z,10.90
2022-09-12T02:39:28.522Z,10.90
2022-09-12T02:44:36.475Z,10.85
2022-09-12T02:49:42.523Z,10.86
2022-09-12T02:54:50.239Z,10.91
2022-09-12T03:00:01.052Z,10.90
2022-09-12T03:05:26.699Z,10.89
2022-09-12T03:10:41.657Z,10.93
2022-09-12T03:15:55.937Z,10.98
2022-09-12T03:21:08.509Z,10.98
2022-09-12T03:26:20.344Z,10.98
2022-09-12T03:31:26.966Z,11.00
2022-09-12T03:36:33.177Z,10.98
2022-09-12T03:41:39.245Z,10.98
2022-09-12T03:46:46.050Z,10.95
2022-09-12T03:51:52.553Z,10.93
2022-09-12T03:56:58.450Z,10.92
2022-09-12T04:02:04.913Z,10.90
2022-09-12T04:07:11.309Z,10.93
2022-09-12T04:12:17.831Z,10.94
2022-09-12T04:17:24.349Z,10.93
2022-09-12T04:22:32.130Z,10.90
2022-09-12T04:27:38.423Z,10.89
2022-09-12T04:32:44.650Z,10.87
2022-09-12T04:37:51.131Z,10.84
2022-09-12T04:42:57.128Z,10.87
2022-09-12T04:48:03.877Z,10.85
2022-09-12T04:53:10.251Z,10.84
2022-09-12T04:58:16.322Z,10.85
2022-09-12T05:03:22.343Z,10.86
2022-09-12T05:08:28.668Z,10.84
2022-09-12T05:13:35.214Z,10.85
2022-09-12T05:18:41.724Z,10.84
2022-09-12T05:23:50.523Z,10.81
2022-09-12T05:28:57.181Z,10.83
2022-09-12T05:34:09.084Z,10.85
2022-09-12T05:39:15.369Z,10.87
2022-09-12T05:44:21.257Z,10.88
2022-09-12T05:49:27.954Z,10.91
2022-09-12T05:54:34.545Z,10.98
2022-09-12T05:59:40.794Z,11.01
2022-09-12T06:04:47.286Z,11.00
2022-09-12T06:09:53.826Z,11.04
2022-09-12T06:14:59.699Z,11.16
2022-09-12T06:20:06.974Z,11.23
2022-09-12T06:25:13.019Z,11.35
2022-09-12T06:30:25.319Z,11.44
2022-09-12T06:35:31.844Z,11.49
2022-09-12T06:40:46.545Z,11.63
2022-09-12T06:45:52.883Z,11.77
2022-09-12T06:51:00.355Z,11.83
2022-09-12T06:56:11.426Z,11.84
2022-09-12T07:01:19.048Z,12.04
2022-09-12T07:06:32.525Z,12.24
2022-09-12T07:11:41.033Z,12.26
2022-09-12T07:16:47.684Z,12.32
2022-09-12T07:21:58.036Z,12.24
2022-09-12T07:27:04.773Z,12.25
2022-09-12T07:32:12.151Z,12.28
2022-09-12T07:37:18.466Z,12.25
2022-09-12T07:42:24.870Z,12.42
2022-09-12T07:47:31.339Z,12.69
2022-09-12T07:52:37.709Z,12.83
2022-09-12T07:57:44.125Z,12.89
2022-09-12T08:02:54.147Z,13.01
2022-09-12T08:08:01.074Z,13.22
2022-09-12T08:13:10.725Z,13.44
2022-09-12T08:18:17.433Z,13.62
2022-09-12T08:23:25.049Z,13.73
2022-09-12T08:28:32.593Z,13.66
2022-09-12T08:33:38.718Z,13.66
2022-09-12T08:38:46.242Z,13.76
2022-09-12T08:44:04.435Z,13.77
2022-09-12T08:49:14.157Z,13.80
2022-09-12T08:54:24.976Z,13.83
2022-09-12T08:59:35.754Z,13.86
2022-09-12T09:04:51.001Z,13.84
2022-09-12T09:10:08.137Z,13.93
2022-09-12T09:15:28.778Z,14.01
2022-09-12T09:20:41.244Z,14.03
2022-09-12T09:25:55.165Z,13.91
2022-09-12T09:31:02.108Z,13.95
2022-09-12T09:36:20.309Z,14.11
2022-09-12T09:41:37.329Z,14.30
2022-09-12T09:46:43.751Z,14.36
2022-09-12T09:51:50.972Z,14.28
2022-09-12T09:56:57.887Z,14.20
2022-09-12T10:02:23.872Z,14.25
2022-09-12T10:07:31.195Z,14.35
2022-09-12T10:12:37.348Z,14.33
2022-09-12T10:17:46.503Z,14.27
2022-09-12T10:22:54.006Z,14.30
2022-09-12T10:28:02.837Z,14.39
2022-09-12T10:33:12.955Z,14.60
2022-09-12T10:38:26.594Z,14.88
2022-09-12T10:43:37.690Z,14.99
2022-09-12T10:48:46.436Z,15.22
2022-09-12T10:53:56.319Z,15.35
2022-09-12T10:59:19.402Z,15.32
2022-09-12T11:04:48.459Z,15.18
2022-09-12T11:10:00.001Z,14.99
2022-09-12T11:15:26.648Z,15.08
2022-09-12T11:20:51.617Z,15.43
2022-09-12T11:26:04.309Z,15.34
2022-09-12T11:31:37.419Z,15.03
2022-09-12T11:36:55.562Z,14.82
2022-09-12T11:42:05.555Z,14.72
2022-09-12T11:47:14.906Z,14.68
2022-09-12T11:52:23.786Z,14.80
2022-09-12T11:57:36.293Z,14.95
2022-09-12T12:02:55.661Z,15.09
2022-09-12T12:08:05.869Z,15.10
2022-09-12T12:13:21.230Z,15.00
2022-09-12T12:18:29.512Z,14.92
2022-09-12T12:23:37.592Z,14.94
2022-09-12T12:29:01.333Z,15.03
2022-09-12T12:34:27.564Z,15.16
2022-09-12T12:39:55.852Z,15.23
2022-09-12T12:45:03.782Z,15.31
2022-09-12T12:50:23.855Z,15.40
2022-09-12T12:55:36.283Z,15.52
2022-09-12T13:00:42.335Z,15.66
2022-09-12T13:05:51.488Z,15.75
2022-09-12T13:11:01.105Z,15.91
2022-09-12T13:16:09.588Z,15.94
2022-09-12T13:21:17.522Z,16.02
2022-09-12T13:26:25.902Z,16.27
2022-09-12T13:31:31.846Z,16.55
2022-09-12T13:36:57.764Z,16.75
2022-09-12T13:42:37.373Z,16.79
2022-09-12T13:47:45.264Z,16.73
2022-09-12T13:52:55.135Z,16.56
2022-09-12T13:58:04.011Z,16.44
2022-09-12T14:03:46.895Z,16.35
2022-09-12T14:08:55.078Z,16.34
2022-09-12T14:14:06.486Z,16.38
2022-09-12T14:19:16.283Z,16.39
2022-09-12T14:24:24.047Z,16.31
2022-09-12T14:29:30.320Z,16.18
2022-09-12T14:34:36.440Z,15.99
2022-09-12T14:39:45.010Z,15.84
2022-09-12T14:44:58.345Z,15.72
2022-09-12T14:50:08.263Z,15.64
2022-09-12T14:55:31.528Z,15.53
2022-09-12T15:00:37.899Z,15.41
2022-09-12T15:05:51.962Z,15.31
2022-09-12T15:10:58.717Z,15.21
2022-09-12T15:16:09.562Z,15.13
2022-09-12T15:21:19.807Z,15.01
2022-09-12T15:26:30.533Z,14.85
2022-09-12T15:31:36.449Z,14.73
2022-09-12T15:36:42.765Z,14.63
2022-09-12T15:41:49.449Z,14.52
2022-09-12T15:46:55.615Z,14.49
2022-09-12T15:52:02.961Z,14.51
2022-09-12T15:57:09.606Z,14.51
2022-09-12T16:02:15.615Z,14.42
2022-09-12T16:07:21.581Z,14.33
2022-09-12T16:12:27.551Z,14.30
2022-09-12T16:17:33.779Z,14.31
2022-09-12T16:22:39.916Z,14.28
2022-09-12T16:27:46.329Z,14.22
2022-09-12T16:32:53.585Z,14.11
2022-09-12T16:38:00.966Z,14.05
2022-09-12T16:43:07.094Z,14.00
2022-09-12T16:48:12.951Z,13.98
2022-09-12T16:53:19.359Z,13.89
2022-09-12T16:58:25.441Z,13.75
2022-09-12T17:03:31.730Z,13.65
2022-09-12T17:08:40.124Z,13.59
2022-09-12T17:14:07.859Z,13.52
2022-09-12T17:19:20.418Z,13.43
2022-09-12T17:24:26.941Z,13.38
2022-09-12T17:29:34.461Z,13.35
2022-09-12T17:34:40.490Z,13.31
2022-09-12T17:39:47.996Z,13.24
2022-09-12T17:44:54.921Z,13.20
2022-09-12T17:50:27.467Z,13.19
2022-09-12T17:55:27.596Z,13.15
2022-09-12T18:00:53.087Z,13.11
2022-09-12T18:05:59.310Z,13.08
2022-09-12T18:11:07.349Z,13.07
2022-09-12T18:16:14.833Z,13.03
2022-09-12T18:21:21.035Z,12.99
2022-09-12T18:26:27.830Z,12.97
2022-09-12T18:31:34.281Z,13.02
2022-09-12T18:36:40.736Z,12.98
2022-09-12T18:41:46.815Z,12.89
2022-09-12T18:46:52.976Z,12.80
2022-09-12T18:51:59.277Z,12.74
2022-09-12T18:57:05.970Z,12.68
2022-09-12T19:02:15.534Z,12.66
2022-09-12T19:07:21.562Z,12.72
2022-09-12T19:12:27.889Z,12.77
2022-09-12T19:17:33.941Z,12.77
2022-09-12T19:22:39.783Z,12.72
2022-09-12T19:27:45.910Z,12.71
2022-09-12T19:32:52.385Z,12.72
2022-09-12T19:37:58.489Z,12.62
2022-09-12T19:43:04.393Z,12.42
2022-09-12T19:48:10.795Z,12.22
2022-09-12T19:53:17.250Z,12.03
2022-09-12T19:58:23.327Z,11.81
2022-09-12T20:03:29.110Z,11.57
2022-09-12T20:08:35.708Z,11.42
2022-09-12T20:13:41.653Z,11.34
2022-09-12T20:18:49.370Z,11.19
2022-09-12T20:23:55.555Z,10.99
2022-09-12T20:29:02.091Z,10.93
2022-09-12T20:34:13.647Z,10.76
2022-09-12T20:39:22.142Z,10.54
2022-09-12T20:44:30.220Z,10.33
2022-09-12T20:49:36.604Z,10.11
2022-09-12T20:54:42.656Z,9.97
2022-09-12T20:59:48.774Z,9.85
2022-09-12T21:04:54.857Z,9.77
2022-09-12T21:10:00.871Z,9.66
2022-09-12T21:15:08.891Z,9.59
2022-09-12T21:20:15.256Z,9.60
2022-09-12T21:25:21.135Z,9.59
2022-09-12T21:30:27.707Z,9.38
2022-09-12T21:35:35.972Z,9.24
2022-09-12T21:40:43.664Z,9.12
2022-09-12T21:45:56.638Z,8.98
2022-09-12T21:51:03.465Z,9.03
2022-09-12T21:56:09.954Z,9.19
2022-09-12T22:01:15.811Z,9.34
2022-09-12T22:06:22.637Z,9.49
2022-09-12T22:11:29.366Z,9.62
2022-09-12T22:16:35.503Z,9.76
2022-09-12T22:22:01.388Z,9.83
2022-09-12T22:27:08.553Z,9.78
2022-09-12T22:32:15.198Z,9.65
2022-09-12T22:37:21.297Z,9.60
2022-09-12T22:42:29.793Z,9.47
2022-09-12T22:47:36.244Z,9.27
2022-09-12T22:52:43.458Z,9.16
2022-09-12T22:57:49.551Z,9.10
2022-09-12T23:02:55.883Z,9.00
2022-09-12T23:08:02.227Z,8.91
2022-09-12T23:13:08.697Z,8.79
2022-09-12T23:18:14.974Z,8.69
2022-09-12T23:23:21.036Z,8.62
2022-09-12T23:28:27.166Z,8.49
2022-09-12T23:33:33.761Z,8.30
2022-09-12T23:38:40.411Z,8.13
2022-09-12T23:43:48.577Z,7.99
2022-09-12T23:48:54.620Z,7.95
2022-09-12T23:54:01.554Z,7.94
2022-09-12T23:59:07.981Z,7.95
